sensor_id;sensor_type;location;lat;lon;timestamp;temperature;humidity
73955;DHT22;62306;52.516;13.290;2024-03-08T00:00:30;3.70;99.90
73955;DHT22;62306;52.516;13.290;2024-03-08T00:02:58;3.70;99.90
73955;DHT22;62306;52.516;13.290;2024-03-08T00:05:27;3.70;99.90
73955;DHT22;62306;52.516;13.290;2024-03-08T00:07:54;3.70;99.90
73955;DHT22;62306;52.516;13.290;2024-03-08T00:10:21;3.70;99.90
73955;DHT22;62306;52.516;13.290;2024-03-08T00:12:48;3.70;99.90
73955;DHT22;62306;52.516;13.290;2024-03-08T00:15:17;3.60;99.90
73955;DHT22;62306;52.516;13.290;2024-03-08T00:17:45;3.60;99.90
73955;DHT22;62306;52.516;13.290;2024-03-08T00:20:12;3.60;99.90
73955;DHT22;62306;52.516;13.290;2024-03-08T00:22:39;3.50;99.90
73955;DHT22;62306;52.516;13.290;2024-03-08T00:25:07;3.60;99.90
73955;DHT22;62306;52.516;13.290;2024-03-08T00:27:35;3.50;99.90
73955;DHT22;62306;52.516;13.290;2024-03-08T00:30:03;3.60;99.90
73955;DHT22;62306;52.516;13.290;2024-03-08T00:32:29;3.60;99.90
73955;DHT22;62306;52.516;13.290;2024-03-08T00:34:58;3.60;99.90
73955;DHT22;62306;52.516;13.290;2024-03-08T00:37:25;3.50;99.90
73955;DHT22;62306;52.516;13.290;2024-03-08T00:39:52;3.50;99.90
73955;DHT22;62306;52.516;13.290;2024-03-08T00:42:20;3.60;99.90
73955;DHT22;62306;52.516;13.290;2024-03-08T00:44:47;3.50;99.90
73955;DHT22;62306;52.516;13.290;2024-03-08T00:47:16;3.50;99.90
73955;DHT22;62306;52.516;13.290;2024-03-08T00:49:43;3.50;99.90
73955;DHT22;62306;52.516;13.290;2024-03-08T00:52:11;3.40;99.90
73955;DHT22;62306;52.516;13.290;2024-03-08T00:54:38;3.40;99.90
73955;DHT22;62306;52.516;13.290;2024-03-08T00:57:06;3.30;99.90
73955;DHT22;62306;52.516;13.290;2024-03-08T00:59:32;3.30;99.90
73955;DHT22;62306;52.516;13.290;2024-03-08T01:02:00;3.30;99.90
73955;DHT22;62306;52.516;13.290;2024-03-08T01:04:27;3.30;99.90
73955;DHT22;62306;52.516;13.290;2024-03-08T01:06:55;3.30;99.90
73955;DHT22;62306;52.516;13.290;2024-03-08T01:09:24;3.30;99.90
73955;DHT22;62306;52.516;13.290;2024-03-08T01:11:52;3.30;99.90
73955;DHT22;62306;52.516;13.290;2024-03-08T01:14:20;3.30;99.90
73955;DHT22;62306;52.516;13.290;2024-03-08T01:16:48;3.20;99.90
73955;DHT22;62306;52.516;13.290;2024-03-08T01:19:15;3.10;99.90
73955;DHT22;62306;52.516;13.290;2024-03-08T01:21:42;3.10;99.90
73955;DHT22;62306;52.516;13.290;2024-03-08T01:24:09;3.10;99.90
73955;DHT22;62306;52.516;13.290;2024-03-08T01:26:37;3.10;99.90
73955;DHT22;62306;52.516;13.290;2024-03-08T01:29:04;3.10;99.90
73955;DHT22;62306;52.516;13.290;2024-03-08T01:31:32;3.20;99.90
73955;DHT22;62306;52.516;13.290;2024-03-08T01:33:59;3.20;99.90
73955;DHT22;62306;52.516;13.290;2024-03-08T01:36:26;3.20;99.90
73955;DHT22;62306;52.516;13.290;2024-03-08T01:38:53;3.10;99.90
73955;DHT22;62306;52.516;13.290;2024-03-08T01:41:20;3.10;99.90
73955;DHT22;62306;52.516;13.290;2024-03-08T01:43:48;3.00;99.90
73955;DHT22;62306;52.516;13.290;2024-03-08T01:46:19;3.00;99.90
73955;DHT22;62306;52.516;13.290;2024-03-08T01:48:48;3.00;99.90
73955;DHT22;62306;52.516;13.290;2024-03-08T01:51:16;2.90;99.90
73955;DHT22;62306;52.516;13.290;2024-03-08T01:53:44;3.00;99.90
73955;DHT22;62306;52.516;13.290;2024-03-08T01:56:13;3.00;99.90
73955;DHT22;62306;52.516;13.290;2024-03-08T01:58:41;3.00;99.90
73955;DHT22;62306;52.516;13.290;2024-03-08T02:01:11;3.00;99.90
73955;DHT22;62306;52.516;13.290;2024-03-08T02:03:40;3.00;99.90
73955;DHT22;62306;52.516;13.290;2024-03-08T02:06:09;3.00;99.90
73955;DHT22;62306;52.516;13.290;2024-03-08T02:08:39;2.90;99.90
73955;DHT22;62306;52.516;13.290;2024-03-08T02:11:06;2.90;99.90
73955;DHT22;62306;52.516;13.290;2024-03-08T02:13:33;2.80;99.90
73955;DHT22;62306;52.516;13.290;2024-03-08T02:16:00;2.70;99.90
73955;DHT22;62306;52.516;13.290;2024-03-08T02:18:29;2.60;99.90
73955;DHT22;62306;52.516;13.290;2024-03-08T02:20:58;2.50;99.90
73955;DHT22;62306;52.516;13.290;2024-03-08T02:23:26;2.40;99.90
73955;DHT22;62306;52.516;13.290;2024-03-08T02:25:53;2.40;99.90
73955;DHT22;62306;52.516;13.290;2024-03-08T02:28:22;2.30;99.90
73955;DHT22;62306;52.516;13.290;2024-03-08T02:30:51;2.40;99.90
73955;DHT22;62306;52.516;13.290;2024-03-08T02:33:20;2.30;99.90
73955;DHT22;62306;52.516;13.290;2024-03-08T02:35:48;2.20;99.90
73955;DHT22;62306;52.516;13.290;2024-03-08T02:38:18;2.30;99.90
73955;DHT22;62306;52.516;13.290;2024-03-08T02:40:46;2.30;99.90
73955;DHT22;62306;52.516;13.290;2024-03-08T02:43:13;2.40;99.90
73955;DHT22;62306;52.516;13.290;2024-03-08T02:45:41;2.50;99.90
73955;DHT22;62306;52.516;13.290;2024-03-08T02:48:09;2.60;99.90
73955;DHT22;62306;52.516;13.290;2024-03-08T02:50:36;2.40;99.90
73955;DHT22;62306;52.516;13.290;2024-03-08T02:53:05;2.30;99.90
73955;DHT22;62306;52.516;13.290;2024-03-08T02:55:34;2.30;99.90
73955;DHT22;62306;52.516;13.290;2024-03-08T02:58:01;2.40;99.90
73955;DHT22;62306;52.516;13.290;2024-03-08T03:00:28;2.40;99.90
73955;DHT22;62306;52.516;13.290;2024-03-08T03:02:56;2.40;99.90
73955;DHT22;62306;52.516;13.290;2024-03-08T03:05:23;2.30;99.90
73955;DHT22;62306;52.516;13.290;2024-03-08T03:07:51;2.40;99.90
73955;DHT22;62306;52.516;13.290;2024-03-08T03:10:18;2.40;99.90
73955;DHT22;62306;52.516;13.290;2024-03-08T03:12:48;2.50;99.90
73955;DHT22;62306;52.516;13.290;2024-03-08T03:15:15;2.50;99.90
73955;DHT22;62306;52.516;13.290;2024-03-08T03:17:46;2.50;99.90
73955;DHT22;62306;52.516;13.290;2024-03-08T03:20:13;2.50;99.90
73955;DHT22;62306;52.516;13.290;2024-03-08T03:22:40;2.50;99.90
73955;DHT22;62306;52.516;13.290;2024-03-08T03:25:10;2.50;99.90
73955;DHT22;62306;52.516;13.290;2024-03-08T03:27:38;2.50;99.90
73955;DHT22;62306;52.516;13.290;2024-03-08T03:30:08;2.40;99.90
73955;DHT22;62306;52.516;13.290;2024-03-08T03:32:47;2.40;99.90
73955;DHT22;62306;52.516;13.290;2024-03-08T03:35:14;2.40;99.90
73955;DHT22;62306;52.516;13.290;2024-03-08T03:37:41;2.40;99.90
73955;DHT22;62306;52.516;13.290;2024-03-08T03:40:12;2.40;99.90
73955;DHT22;62306;52.516;13.290;2024-03-08T03:42:39;4.00;99.90
73955;DHT22;62306;52.516;13.290;2024-03-08T03:45:08;2.30;99.90
73955;DHT22;62306;52.516;13.290;2024-03-08T03:47:36;2.30;99.90
73955;DHT22;62306;52.516;13.290;2024-03-08T03:50:05;2.30;99.90
73955;DHT22;62306;52.516;13.290;2024-03-08T03:52:32;2.20;99.90
73955;DHT22;62306;52.516;13.290;2024-03-08T03:54:59;2.20;99.90
73955;DHT22;62306;52.516;13.290;2024-03-08T03:57:26;2.20;99.90
73955;DHT22;62306;52.516;13.290;2024-03-08T03:59:53;2.30;99.90
73955;DHT22;62306;52.516;13.290;2024-03-08T04:02:21;2.20;99.90
73955;DHT22;62306;52.516;13.290;2024-03-08T04:04:48;2.20;99.90
73955;DHT22;62306;52.516;13.290;2024-03-08T04:07:15;2.20;99.90
73955;DHT22;62306;52.516;13.290;2024-03-08T04:09:42;2.10;99.90
73955;DHT22;62306;52.516;13.290;2024-03-08T04:12:09;2.10;99.90
73955;DHT22;62306;52.516;13.290;2024-03-08T04:14:36;2.10;99.90
73955;DHT22;62306;52.516;13.290;2024-03-08T04:17:04;2.10;99.90
73955;DHT22;62306;52.516;13.290;2024-03-08T04:19:33;2.10;99.90
73955;DHT22;62306;52.516;13.290;2024-03-08T04:22:00;2.10;99.90
73955;DHT22;62306;52.516;13.290;2024-03-08T04:24:27;2.00;99.90
73955;DHT22;62306;52.516;13.290;2024-03-08T04:26:56;1.90;99.90
73955;DHT22;62306;52.516;13.290;2024-03-08T04:29:24;2.00;99.90
73955;DHT22;62306;52.516;13.290;2024-03-08T04:31:52;2.00;99.90
73955;DHT22;62306;52.516;13.290;2024-03-08T04:34:19;2.10;99.90
73955;DHT22;62306;52.516;13.290;2024-03-08T04:36:48;2.10;99.90
73955;DHT22;62306;52.516;13.290;2024-03-08T04:39:15;2.10;99.90
73955;DHT22;62306;52.516;13.290;2024-03-08T04:41:44;2.00;99.90
73955;DHT22;62306;52.516;13.290;2024-03-08T04:44:11;2.00;99.90
73955;DHT22;62306;52.516;13.290;2024-03-08T04:46:39;1.90;99.90
73955;DHT22;62306;52.516;13.290;2024-03-08T04:49:06;1.90;99.90
73955;DHT22;62306;52.516;13.290;2024-03-08T04:51:34;1.90;99.90
73955;DHT22;62306;52.516;13.290;2024-03-08T04:54:02;2.00;99.90
73955;DHT22;62306;52.516;13.290;2024-03-08T04:56:30;2.00;99.90
73955;DHT22;62306;52.516;13.290;2024-03-08T04:58:57;2.00;99.90
73955;DHT22;62306;52.516;13.290;2024-03-08T05:01:24;2.00;99.90
73955;DHT22;62306;52.516;13.290;2024-03-08T05:03:51;2.00;99.90
73955;DHT22;62306;52.516;13.290;2024-03-08T05:06:20;2.10;99.90
73955;DHT22;62306;52.516;13.290;2024-03-08T05:08:49;2.10;99.90
73955;DHT22;62306;52.516;13.290;2024-03-08T05:11:17;2.10;99.90
73955;DHT22;62306;52.516;13.290;2024-03-08T05:13:44;2.10;99.90
73955;DHT22;62306;52.516;13.290;2024-03-08T05:16:11;2.10;99.90
73955;DHT22;62306;52.516;13.290;2024-03-08T05:18:41;2.00;99.90
73955;DHT22;62306;52.516;13.290;2024-03-08T05:21:08;2.00;99.90
73955;DHT22;62306;52.516;13.290;2024-03-08T05:23:35;2.00;99.90
73955;DHT22;62306;52.516;13.290;2024-03-08T05:26:04;2.10;99.90
73955;DHT22;62306;52.516;13.290;2024-03-08T05:28:32;2.00;99.90
73955;DHT22;62306;52.516;13.290;2024-03-08T05:30:59;2.10;99.90
73955;DHT22;62306;52.516;13.290;2024-03-08T05:33:26;2.00;99.90
73955;DHT22;62306;52.516;13.290;2024-03-08T05:35:55;2.00;99.90
73955;DHT22;62306;52.516;13.290;2024-03-08T05:38:21;2.00;99.90
73955;DHT22;62306;52.516;13.290;2024-03-08T05:40:50;2.00;99.90
73955;DHT22;62306;52.516;13.290;2024-03-08T05:43:17;2.00;99.90
73955;DHT22;62306;52.516;13.290;2024-03-08T05:45:46;2.00;99.90
73955;DHT22;62306;52.516;13.290;2024-03-08T05:48:13;2.00;99.90
73955;DHT22;62306;52.516;13.290;2024-03-08T05:50:40;2.10;99.90
73955;DHT22;62306;52.516;13.290;2024-03-08T05:53:09;2.10;99.90
73955;DHT22;62306;52.516;13.290;2024-03-08T05:55:36;2.10;99.90
73955;DHT22;62306;52.516;13.290;2024-03-08T05:58:03;2.10;99.90
73955;DHT22;62306;52.516;13.290;2024-03-08T06:00:30;2.10;99.90
73955;DHT22;62306;52.516;13.290;2024-03-08T06:02:59;2.10;99.90
73955;DHT22;62306;52.516;13.290;2024-03-08T06:05:26;2.10;99.90
73955;DHT22;62306;52.516;13.290;2024-03-08T06:07:53;2.10;99.90
73955;DHT22;62306;52.516;13.290;2024-03-08T06:10:20;2.20;99.90
73955;DHT22;62306;52.516;13.290;2024-03-08T06:12:47;2.20;99.90
73955;DHT22;62306;52.516;13.290;2024-03-08T06:15:14;2.20;99.90
73955;DHT22;62306;52.516;13.290;2024-03-08T06:17:41;2.20;99.90
73955;DHT22;62306;52.516;13.290;2024-03-08T06:20:10;2.20;99.90
73955;DHT22;62306;52.516;13.290;2024-03-08T06:22:38;2.30;99.90
73955;DHT22;62306;52.516;13.290;2024-03-08T06:25:07;2.30;99.90
73955;DHT22;62306;52.516;13.290;2024-03-08T06:27:34;2.30;99.90
73955;DHT22;62306;52.516;13.290;2024-03-08T06:30:00;2.40;99.90
73955;DHT22;62306;52.516;13.290;2024-03-08T06:32:29;2.40;99.90
73955;DHT22;62306;52.516;13.290;2024-03-08T06:34:56;2.50;99.90
73955;DHT22;62306;52.516;13.290;2024-03-08T06:37:24;2.60;99.90
73955;DHT22;62306;52.516;13.290;2024-03-08T06:39:51;2.70;99.90
73955;DHT22;62306;52.516;13.290;2024-03-08T06:42:20;2.70;99.90
73955;DHT22;62306;52.516;13.290;2024-03-08T06:44:46;2.80;99.90
73955;DHT22;62306;52.516;13.290;2024-03-08T06:47:15;2.80;99.90
73955;DHT22;62306;52.516;13.290;2024-03-08T06:49:42;2.90;99.90
73955;DHT22;62306;52.516;13.290;2024-03-08T06:52:10;3.00;99.90
73955;DHT22;62306;52.516;13.290;2024-03-08T06:54:38;3.00;99.90
73955;DHT22;62306;52.516;13.290;2024-03-08T06:57:06;3.20;99.90
73955;DHT22;62306;52.516;13.290;2024-03-08T06:59:33;3.20;99.90
73955;DHT22;62306;52.516;13.290;2024-03-08T07:02:01;3.10;99.90
73955;DHT22;62306;52.516;13.290;2024-03-08T07:04:28;3.50;99.90
73955;DHT22;62306;52.516;13.290;2024-03-08T07:06:55;3.60;99.90
73955;DHT22;62306;52.516;13.290;2024-03-08T07:09:23;3.80;99.90
73955;DHT22;62306;52.516;13.290;2024-03-08T07:11:51;4.00;99.90
73955;DHT22;62306;52.516;13.290;2024-03-08T07:14:21;4.10;99.90
73955;DHT22;62306;52.516;13.290;2024-03-08T07:16:48;4.20;99.90
73955;DHT22;62306;52.516;13.290;2024-03-08T07:19:15;4.30;99.90
73955;DHT22;62306;52.516;13.290;2024-03-08T07:21:42;4.30;99.90
73955;DHT22;62306;52.516;13.290;2024-03-08T07:24:09;4.50;99.90
73955;DHT22;62306;52.516;13.290;2024-03-08T07:26:54;4.60;99.90
73955;DHT22;62306;52.516;13.290;2024-03-08T07:29:21;4.70;99.90
73955;DHT22;62306;52.516;13.290;2024-03-08T07:31:48;4.80;99.90
73955;DHT22;62306;52.516;13.290;2024-03-08T07:34:21;4.80;99.90
73955;DHT22;62306;52.516;13.290;2024-03-08T07:36:48;4.90;99.90
73955;DHT22;62306;52.516;13.290;2024-03-08T07:39:16;5.10;99.90
73955;DHT22;62306;52.516;13.290;2024-03-08T07:41:44;5.30;99.90
73955;DHT22;62306;52.516;13.290;2024-03-08T07:44:12;5.40;99.90
73955;DHT22;62306;52.516;13.290;2024-03-08T07:46:39;5.60;99.90
73955;DHT22;62306;52.516;13.290;2024-03-08T07:49:07;5.70;99.90
73955;DHT22;62306;52.516;13.290;2024-03-08T07:51:36;5.80;99.90
73955;DHT22;62306;52.516;13.290;2024-03-08T07:54:03;5.80;99.90
73955;DHT22;62306;52.516;13.290;2024-03-08T07:56:30;5.70;99.90
73955;DHT22;62306;52.516;13.290;2024-03-08T07:58:57;5.70;99.90
73955;DHT22;62306;52.516;13.290;2024-03-08T08:01:26;5.90;99.90
73955;DHT22;62306;52.516;13.290;2024-03-08T08:03:53;5.90;99.90
73955;DHT22;62306;52.516;13.290;2024-03-08T08:06:20;5.80;99.90
73955;DHT22;62306;52.516;13.290;2024-03-08T08:08:47;5.80;99.90
73955;DHT22;62306;52.516;13.290;2024-03-08T08:11:13;5.90;99.90
73955;DHT22;62306;52.516;13.290;2024-03-08T08:13:41;5.90;99.90
73955;DHT22;62306;52.516;13.290;2024-03-08T08:16:08;6.10;99.90
73955;DHT22;62306;52.516;13.290;2024-03-08T08:18:37;6.30;99.90
73955;DHT22;62306;52.516;13.290;2024-03-08T08:21:05;6.40;99.90
73955;DHT22;62306;52.516;13.290;2024-03-08T08:23:32;6.40;99.90
73955;DHT22;62306;52.516;13.290;2024-03-08T08:25:59;6.50;99.90
73955;DHT22;62306;52.516;13.290;2024-03-08T08:28:27;6.50;99.80
73955;DHT22;62306;52.516;13.290;2024-03-08T08:30:54;6.70;99.50
73955;DHT22;62306;52.516;13.290;2024-03-08T08:33:20;6.70;98.90
73955;DHT22;62306;52.516;13.290;2024-03-08T08:35:49;6.60;99.00
73955;DHT22;62306;52.516;13.290;2024-03-08T08:38:19;6.70;99.10
73955;DHT22;62306;52.516;13.290;2024-03-08T08:40:47;6.80;98.90
73955;DHT22;62306;52.516;13.290;2024-03-08T08:43:14;6.60;98.80
73955;DHT22;62306;52.516;13.290;2024-03-08T08:45:41;6.70;98.80
73955;DHT22;62306;52.516;13.290;2024-03-08T08:48:08;6.80;98.90
73955;DHT22;62306;52.516;13.290;2024-03-08T08:50:36;7.00;98.70
73955;DHT22;62306;52.516;13.290;2024-03-08T08:53:04;7.20;98.20
73955;DHT22;62306;52.516;13.290;2024-03-08T08:55:32;7.30;97.40
73955;DHT22;62306;52.516;13.290;2024-03-08T08:58:01;7.20;96.60
73955;DHT22;62306;52.516;13.290;2024-03-08T09:00:28;7.10;97.90
73955;DHT22;62306;52.516;13.290;2024-03-08T09:02:56;7.20;97.30
73955;DHT22;62306;52.516;13.290;2024-03-08T09:05:24;7.50;96.40
73955;DHT22;62306;52.516;13.290;2024-03-08T09:07:52;7.50;96.20
73955;DHT22;62306;52.516;13.290;2024-03-08T09:10:21;7.30;95.90
73955;DHT22;62306;52.516;13.290;2024-03-08T09:12:48;7.20;96.60
73955;DHT22;62306;52.516;13.290;2024-03-08T09:15:16;7.20;96.60
73955;DHT22;62306;52.516;13.290;2024-03-08T09:17:46;7.20;96.80
73955;DHT22;62306;52.516;13.290;2024-03-08T09:20:14;7.30;97.20
73955;DHT22;62306;52.516;13.290;2024-03-08T09:22:43;7.50;96.20
73955;DHT22;62306;52.516;13.290;2024-03-08T09:25:10;7.60;95.90
73955;DHT22;62306;52.516;13.290;2024-03-08T09:27:38;7.60;95.90
73955;DHT22;62306;52.516;13.290;2024-03-08T09:30:07;7.60;95.20
73955;DHT22;62306;52.516;13.290;2024-03-08T09:32:34;7.60;95.70
73955;DHT22;62306;52.516;13.290;2024-03-08T09:35:02;7.70;95.00
73955;DHT22;62306;52.516;13.290;2024-03-08T09:37:32;7.60;94.70
73955;DHT22;62306;52.516;13.290;2024-03-08T09:39:59;7.50;95.30
73955;DHT22;62306;52.516;13.290;2024-03-08T09:42:30;7.40;96.00
73955;DHT22;62306;52.516;13.290;2024-03-08T09:44:59;7.40;95.70
73955;DHT22;62306;52.516;13.290;2024-03-08T09:47:28;9.10;95.90
73955;DHT22;62306;52.516;13.290;2024-03-08T09:49:59;7.40;95.90
73955;DHT22;62306;52.516;13.290;2024-03-08T09:52:26;7.40;95.20
73955;DHT22;62306;52.516;13.290;2024-03-08T09:54:56;7.40;95.20
73955;DHT22;62306;52.516;13.290;2024-03-08T09:57:23;7.50;94.70
73955;DHT22;62306;52.516;13.290;2024-03-08T09:59:51;7.60;94.70
73955;DHT22;62306;52.516;13.290;2024-03-08T10:02:20;7.70;94.50
73955;DHT22;62306;52.516;13.290;2024-03-08T10:04:46;7.80;94.40
73955;DHT22;62306;52.516;13.290;2024-03-08T10:07:14;7.80;94.60
73955;DHT22;62306;52.516;13.290;2024-03-08T10:09:41;7.80;94.50
73955;DHT22;62306;52.516;13.290;2024-03-08T10:12:13;7.90;94.20
73955;DHT22;62306;52.516;13.290;2024-03-08T10:14:41;7.90;94.50
73955;DHT22;62306;52.516;13.290;2024-03-08T10:17:08;7.80;94.50
73955;DHT22;62306;52.516;13.290;2024-03-08T10:19:37;8.00;94.30
73955;DHT22;62306;52.516;13.290;2024-03-08T10:22:04;7.90;93.10
73955;DHT22;62306;52.516;13.290;2024-03-08T10:24:32;7.90;93.50
73955;DHT22;62306;52.516;13.290;2024-03-08T10:27:00;8.30;99.90
73955;DHT22;62306;52.516;13.290;2024-03-08T10:29:30;8.10;99.40
73955;DHT22;62306;52.516;13.290;2024-03-08T10:31:57;8.20;92.40
73955;DHT22;62306;52.516;13.290;2024-03-08T10:34:25;8.30;91.30
73955;DHT22;62306;52.516;13.290;2024-03-08T10:36:56;8.10;91.20
73955;DHT22;62306;52.516;13.290;2024-03-08T10:39:26;8.00;90.00
73955;DHT22;62306;52.516;13.290;2024-03-08T10:41:57;7.80;90.30
73955;DHT22;62306;52.516;13.290;2024-03-08T10:44:43;7.80;91.20
73955;DHT22;62306;52.516;13.290;2024-03-08T10:47:19;7.80;91.60
73955;DHT22;62306;52.516;13.290;2024-03-08T10:49:54;7.70;91.40
73955;DHT22;62306;52.516;13.290;2024-03-08T10:52:22;7.70;91.90
73955;DHT22;62306;52.516;13.290;2024-03-08T10:54:52;7.80;92.00
73955;DHT22;62306;52.516;13.290;2024-03-08T10:57:22;8.00;92.10
73955;DHT22;62306;52.516;13.290;2024-03-08T10:59:51;8.10;92.10
73955;DHT22;62306;52.516;13.290;2024-03-08T11:02:18;8.30;90.90
73955;DHT22;62306;52.516;13.290;2024-03-08T11:04:47;8.30;88.70
73955;DHT22;62306;52.516;13.290;2024-03-08T11:07:14;8.10;89.20
73955;DHT22;62306;52.516;13.290;2024-03-08T11:09:47;8.00;90.70
73955;DHT22;62306;52.516;13.290;2024-03-08T11:12:22;7.90;90.90
73955;DHT22;62306;52.516;13.290;2024-03-08T11:14:51;8.00;90.20
73955;DHT22;62306;52.516;13.290;2024-03-08T11:17:25;8.20;88.90
73955;DHT22;62306;52.516;13.290;2024-03-08T11:19:55;8.30;87.90
73955;DHT22;62306;52.516;13.290;2024-03-08T11:22:25;8.50;85.90
73955;DHT22;62306;52.516;13.290;2024-03-08T11:24:58;8.70;83.70
73955;DHT22;62306;52.516;13.290;2024-03-08T11:27:29;8.80;83.10
73955;DHT22;62306;52.516;13.290;2024-03-08T11:30:01;8.90;80.20
73955;DHT22;62306;52.516;13.290;2024-03-08T11:32:36;9.00;79.10
73955;DHT22;62306;52.516;13.290;2024-03-08T11:35:06;8.90;78.60
73955;DHT22;62306;52.516;13.290;2024-03-08T11:37:35;9.00;76.90
73955;DHT22;62306;52.516;13.290;2024-03-08T11:40:12;9.00;76.50
73955;DHT22;62306;52.516;13.290;2024-03-08T11:42:44;9.30;75.30
73955;DHT22;62306;52.516;13.290;2024-03-08T11:45:13;9.50;73.30
73955;DHT22;62306;52.516;13.290;2024-03-08T11:47:42;9.40;74.00
73955;DHT22;62306;52.516;13.290;2024-03-08T11:50:12;9.40;73.70
73955;DHT22;62306;52.516;13.290;2024-03-08T11:52:39;9.40;72.80
73955;DHT22;62306;52.516;13.290;2024-03-08T11:55:08;9.30;73.60
73955;DHT22;62306;52.516;13.290;2024-03-08T11:57:36;9.20;74.70
73955;DHT22;62306;52.516;13.290;2024-03-08T12:00:04;9.20;71.80
73955;DHT22;62306;52.516;13.290;2024-03-08T12:02:33;9.00;73.00
73955;DHT22;62306;52.516;13.290;2024-03-08T12:05:05;9.00;71.70
73955;DHT22;62306;52.516;13.290;2024-03-08T12:07:35;9.00;72.40
73955;DHT22;62306;52.516;13.290;2024-03-08T12:10:17;9.10;70.20
73955;DHT22;62306;52.516;13.290;2024-03-08T12:12:44;9.10;69.00
73955;DHT22;62306;52.516;13.290;2024-03-08T12:15:12;9.40;68.10
73955;DHT22;62306;52.516;13.290;2024-03-08T12:17:40;9.60;67.20
73955;DHT22;62306;52.516;13.290;2024-03-08T12:20:15;9.40;68.10
73955;DHT22;62306;52.516;13.290;2024-03-08T12:22:43;9.40;68.50
73955;DHT22;62306;52.516;13.290;2024-03-08T12:25:11;9.40;68.20
73955;DHT22;62306;52.516;13.290;2024-03-08T12:27:40;9.30;68.20
73955;DHT22;62306;52.516;13.290;2024-03-08T12:30:19;9.30;68.10
73955;DHT22;62306;52.516;13.290;2024-03-08T12:32:52;9.20;68.90
73955;DHT22;62306;52.516;13.290;2024-03-08T12:35:20;9.20;70.70
73955;DHT22;62306;52.516;13.290;2024-03-08T12:37:49;9.40;71.20
73955;DHT22;62306;52.516;13.290;2024-03-08T12:40:17;9.70;70.70
73955;DHT22;62306;52.516;13.290;2024-03-08T12:42:46;9.80;69.80
73955;DHT22;62306;52.516;13.290;2024-03-08T12:45:14;9.90;69.80
73955;DHT22;62306;52.516;13.290;2024-03-08T12:47:41;10.10;68.50
73955;DHT22;62306;52.516;13.290;2024-03-08T12:50:10;10.10;68.60
73955;DHT22;62306;52.516;13.290;2024-03-08T12:52:37;10.00;67.40
73955;DHT22;62306;52.516;13.290;2024-03-08T12:55:04;9.60;68.70
73955;DHT22;62306;52.516;13.290;2024-03-08T12:57:34;9.40;70.40
73955;DHT22;62306;52.516;13.290;2024-03-08T13:00:04;9.40;70.90
73955;DHT22;62306;52.516;13.290;2024-03-08T13:02:38;9.40;70.30
73955;DHT22;62306;52.516;13.290;2024-03-08T13:05:06;9.40;69.70
73955;DHT22;62306;52.516;13.290;2024-03-08T13:07:35;9.50;69.60
73955;DHT22;62306;52.516;13.290;2024-03-08T13:10:04;9.30;70.50
73955;DHT22;62306;52.516;13.290;2024-03-08T13:12:32;9.30;70.70
73955;DHT22;62306;52.516;13.290;2024-03-08T13:15:03;9.40;70.90
73955;DHT22;62306;52.516;13.290;2024-03-08T13:17:30;9.50;70.70
73955;DHT22;62306;52.516;13.290;2024-03-08T13:19:57;9.70;70.10
73955;DHT22;62306;52.516;13.290;2024-03-08T13:22:25;10.00;69.60
73955;DHT22;62306;52.516;13.290;2024-03-08T13:24:53;10.10;67.90
73955;DHT22;62306;52.516;13.290;2024-03-08T13:27:20;9.90;67.40
73955;DHT22;62306;52.516;13.290;2024-03-08T13:29:47;9.70;68.40
73955;DHT22;62306;52.516;13.290;2024-03-08T13:32:16;9.70;68.60
73955;DHT22;62306;52.516;13.290;2024-03-08T13:34:46;9.50;68.40
73955;DHT22;62306;52.516;13.290;2024-03-08T13:37:16;9.50;69.40
73955;DHT22;62306;52.516;13.290;2024-03-08T13:39:43;9.60;68.80
73955;DHT22;62306;52.516;13.290;2024-03-08T13:42:11;9.80;68.00
73955;DHT22;62306;52.516;13.290;2024-03-08T13:44:43;9.90;67.70
73955;DHT22;62306;52.516;13.290;2024-03-08T13:47:11;9.90;68.00
73955;DHT22;62306;52.516;13.290;2024-03-08T13:49:40;9.80;68.70
73955;DHT22;62306;52.516;13.290;2024-03-08T13:52:09;9.80;69.20
73955;DHT22;62306;52.516;13.290;2024-03-08T13:54:38;9.90;67.70
73955;DHT22;62306;52.516;13.290;2024-03-08T13:57:05;10.20;68.20
73955;DHT22;62306;52.516;13.290;2024-03-08T13:59:32;9.80;68.20
73955;DHT22;62306;52.516;13.290;2024-03-08T14:02:01;9.90;67.40
73955;DHT22;62306;52.516;13.290;2024-03-08T14:04:28;9.90;66.60
73955;DHT22;62306;52.516;13.290;2024-03-08T14:06:56;9.90;67.70
73955;DHT22;62306;52.516;13.290;2024-03-08T14:09:29;10.00;67.00
73955;DHT22;62306;52.516;13.290;2024-03-08T14:11:56;10.00;65.90
73955;DHT22;62306;52.516;13.290;2024-03-08T14:14:24;9.80;66.80
73955;DHT22;62306;52.516;13.290;2024-03-08T14:16:51;9.70;67.30
73955;DHT22;62306;52.516;13.290;2024-03-08T14:19:21;9.80;68.10
73955;DHT22;62306;52.516;13.290;2024-03-08T14:21:47;9.70;66.40
73955;DHT22;62306;52.516;13.290;2024-03-08T14:24:16;9.50;67.10
73955;DHT22;62306;52.516;13.290;2024-03-08T14:26:44;9.50;67.80
73955;DHT22;62306;52.516;13.290;2024-03-08T14:29:12;9.60;67.60
73955;DHT22;62306;52.516;13.290;2024-03-08T14:31:39;9.60;67.80
73955;DHT22;62306;52.516;13.290;2024-03-08T14:34:07;9.70;67.20
73955;DHT22;62306;52.516;13.290;2024-03-08T14:36:34;9.70;67.40
73955;DHT22;62306;52.516;13.290;2024-03-08T14:39:01;9.70;66.60
73955;DHT22;62306;52.516;13.290;2024-03-08T14:41:30;9.80;66.90
73955;DHT22;62306;52.516;13.290;2024-03-08T14:43:56;9.80;66.50
73955;DHT22;62306;52.516;13.290;2024-03-08T14:46:23;9.80;67.60
73955;DHT22;62306;52.516;13.290;2024-03-08T14:48:50;9.80;67.80
73955;DHT22;62306;52.516;13.290;2024-03-08T14:51:18;9.70;68.10
73955;DHT22;62306;52.516;13.290;2024-03-08T14:53:47;9.50;68.20
73955;DHT22;62306;52.516;13.290;2024-03-08T14:56:15;9.50;68.70
73955;DHT22;62306;52.516;13.290;2024-03-08T14:58:43;9.50;69.00
73955;DHT22;62306;52.516;13.290;2024-03-08T15:01:10;9.50;69.30
73955;DHT22;62306;52.516;13.290;2024-03-08T15:03:39;9.40;69.70
73955;DHT22;62306;52.516;13.290;2024-03-08T15:06:06;9.50;69.00
73955;DHT22;62306;52.516;13.290;2024-03-08T15:08:35;9.50;69.00
73955;DHT22;62306;52.516;13.290;2024-03-08T15:11:03;9.60;69.10
73955;DHT22;62306;52.516;13.290;2024-03-08T15:13:31;9.60;69.20
73955;DHT22;62306;52.516;13.290;2024-03-08T15:16:06;9.50;69.30
73955;DHT22;62306;52.516;13.290;2024-03-08T15:18:34;9.50;69.60
73955;DHT22;62306;52.516;13.290;2024-03-08T15:21:03;9.50;68.80
73955;DHT22;62306;52.516;13.290;2024-03-08T15:23:33;9.50;67.80
73955;DHT22;62306;52.516;13.290;2024-03-08T15:26:00;9.40;68.20
73955;DHT22;62306;52.516;13.290;2024-03-08T15:28:27;9.40;66.40
73955;DHT22;62306;52.516;13.290;2024-03-08T15:31:02;9.40;66.40
73955;DHT22;62306;52.516;13.290;2024-03-08T15:33:33;9.40;65.50
73955;DHT22;62306;52.516;13.290;2024-03-08T15:36:00;9.40;65.30